sensor_id;sensor_type;location;lat;lon;timestamp;P1;durP1;ratioP1;P2;durP2;ratioP2
41739;SDS011;27422;52.444;13.300;2023-05-10T00:01:20;11.80;;;3.25;;
41739;SDS011;27422;52.444;13.300;2023-05-10T00:03:45;5.93;;;3.40;;
41739;SDS011;27422;52.444;13.300;2023-05-10T00:06:11;6.95;;;3.35;;
41739;SDS011;27422;52.444;13.300;2023-05-10T00:08:37;5.57;;;3.25;;
41739;SDS011;27422;52.444;13.300;2023-05-10T00:11:02;5.85;;;3.17;;
41739;SDS011;27422;52.444;13.300;2023-05-10T00:13:28;6.50;;;3.45;;
41739;SDS011;27422;52.444;13.300;2023-05-10T00:15:53;7.72;;;3.78;;
41739;SDS011;27422;52.444;13.300;2023-05-10T00:18:19;5.93;;;3.70;;
41739;SDS011;27422;52.444;13.300;2023-05-10T00:20:44;6.95;;;3.50;;
41739;SDS011;27422;52.444;13.300;2023-05-10T00:23:11;8.25;;;4.05;;
41739;SDS011;27422;52.444;13.300;2023-05-10T00:25:36;6.30;;;3.33;;
41739;SDS011;27422;52.444;13.300;2023-05-10T00:28:02;8.35;;;4.28;;
41739;SDS011;27422;52.444;13.300;2023-05-10T00:30:27;6.30;;;3.80;;
41739;SDS011;27422;52.444;13.300;2023-05-10T00:32:53;7.80;;;3.50;;
41739;SDS011;27422;52.444;13.300;2023-05-10T00:35:18;6.28;;;3.80;;
41739;SDS011;27422;52.444;13.300;2023-05-10T00:37:44;8.10;;;3.40;;
41739;SDS011;27422;52.444;13.300;2023-05-10T00:40:10;5.63;;;3.67;;
41739;SDS011;27422;52.444;13.300;2023-05-10T00:42:36;7.63;;;3.80;;
41739;SDS011;27422;52.444;13.300;2023-05-10T00:45:01;5.60;;;3.40;;
41739;SDS011;27422;52.444;13.300;2023-05-10T00:47:27;7.80;;;3.50;;
41739;SDS011;27422;52.444;13.300;2023-05-10T00:49:52;5.95;;;3.25;;
41739;SDS011;27422;52.444;13.300;2023-05-10T00:52:18;6.35;;;3.78;;
41739;SDS011;27422;52.444;13.300;2023-05-10T00:54:44;6.55;;;3.40;;
41739;SDS011;27422;52.444;13.300;2023-05-10T00:57:09;6.53;;;3.90;;
41739;SDS011;27422;52.444;13.300;2023-05-10T00:59:35;4.97;;;3.22;;
41739;SDS011;27422;52.444;13.300;2023-05-10T01:02:01;6.43;;;3.85;;
41739;SDS011;27422;52.444;13.300;2023-05-10T01:04:26;5.60;;;3.58;;
41739;SDS011;27422;52.444;13.300;2023-05-10T01:06:53;5.63;;;3.53;;
41739;SDS011;27422;52.444;13.300;2023-05-10T01:09:19;7.22;;;3.53;;
41739;SDS011;27422;52.444;13.300;2023-05-10T01:11:45;6.00;;;3.50;;
41739;SDS011;27422;52.444;13.300;2023-05-10T01:14:11;6.00;;;3.25;;
41739;SDS011;27422;52.444;13.300;2023-05-10T01:16:37;6.82;;;3.65;;
41739;SDS011;27422;52.444;13.300;2023-05-10T01:19:07;5.77;;;3.47;;
41739;SDS011;27422;52.444;13.300;2023-05-10T01:32:58;7.10;;;3.95;;
41739;SDS011;27422;52.444;13.300;2023-05-10T01:41:24;5.80;;;3.13;;
41739;SDS011;27422;52.444;13.300;2023-05-10T01:46:23;5.68;;;3.50;;
41739;SDS011;27422;52.444;13.300;2023-05-10T01:48:54;6.05;;;3.67;;
41739;SDS011;27422;52.444;13.300;2023-05-10T01:51:24;5.78;;;3.72;;
41739;SDS011;27422;52.444;13.300;2023-05-10T01:53:51;5.90;;;3.80;;
41739;SDS011;27422;52.444;13.300;2023-05-10T01:56:22;6.47;;;3.67;;
41739;SDS011;27422;52.444;13.300;2023-05-10T01:58:49;6.13;;;3.65;;
41739;SDS011;27422;52.444;13.300;2023-05-10T02:01:14;6.95;;;4.10;;
41739;SDS011;27422;52.444;13.300;2023-05-10T02:03:41;8.35;;;4.28;;
41739;SDS011;27422;52.444;13.300;2023-05-10T02:06:07;6.78;;;3.88;;
41739;SDS011;27422;52.444;13.300;2023-05-10T02:08:34;6.18;;;3.72;;
41739;SDS011;27422;52.444;13.300;2023-05-10T02:11:01;6.53;;;3.58;;
41739;SDS011;27422;52.444;13.300;2023-05-10T02:13:27;10.77;;;4.32;;
41739;SDS011;27422;52.444;13.300;2023-05-10T02:15:55;6.50;;;3.53;;
41739;SDS011;27422;52.444;13.300;2023-05-10T02:18:22;6.57;;;3.85;;
41739;SDS011;27422;52.444;13.300;2023-05-10T02:20:49;7.13;;;3.63;;
41739;SDS011;27422;52.444;13.300;2023-05-10T02:23:15;7.65;;;3.67;;
41739;SDS011;27422;52.444;13.300;2023-05-10T02:25:42;6.88;;;4.03;;
41739;SDS011;27422;52.444;13.300;2023-05-10T02:28:08;7.50;;;3.88;;
41739;SDS011;27422;52.444;13.300;2023-05-10T02:30:35;6.37;;;3.87;;
41739;SDS011;27422;52.444;13.300;2023-05-10T02:33:01;6.97;;;4.18;;
41739;SDS011;27422;52.444;13.300;2023-05-10T02:35:27;8.65;;;4.30;;
41739;SDS011;27422;52.444;13.300;2023-05-10T02:37:53;7.05;;;4.03;;
41739;SDS011;27422;52.444;13.300;2023-05-10T02:40:19;6.28;;;4.13;;
41739;SDS011;27422;52.444;13.300;2023-05-10T02:42:45;6.57;;;4.18;;
41739;SDS011;27422;52.444;13.300;2023-05-10T02:45:13;6.10;;;3.92;;
41739;SDS011;27422;52.444;13.300;2023-05-10T02:47:40;8.18;;;4.47;;
41739;SDS011;27422;52.444;13.300;2023-05-10T02:50:06;8.13;;;4.40;;
41739;SDS011;27422;52.444;13.300;2023-05-10T02:52:54;7.88;;;3.90;;
41739;SDS011;27422;52.444;13.300;2023-05-10T02:55:21;6.32;;;3.88;;
41739;SDS011;27422;52.444;13.300;2023-05-10T02:57:51;6.68;;;4.10;;
41739;SDS011;27422;52.444;13.300;2023-05-10T03:00:18;7.30;;;4.07;;
41739;SDS011;27422;52.444;13.300;2023-05-10T03:02:44;9.18;;;3.78;;
41739;SDS011;27422;52.444;13.300;2023-05-10T03:05:09;7.18;;;4.10;;
41739;SDS011;27422;52.444;13.300;2023-05-10T03:07:35;6.95;;;3.65;;
41739;SDS011;27422;52.444;13.300;2023-05-10T03:10:00;7.90;;;4.03;;
41739;SDS011;27422;52.444;13.300;2023-05-10T03:17:43;6.43;;;3.70;;
41739;SDS011;27422;52.444;13.300;2023-05-10T03:20:33;14.50;;;4.22;;
41739;SDS011;27422;52.444;13.300;2023-05-10T03:23:04;7.00;;;4.13;;
41739;SDS011;27422;52.444;13.300;2023-05-10T03:25:34;7.18;;;4.10;;
41739;SDS011;27422;52.444;13.300;2023-05-10T03:28:00;6.28;;;4.00;;
41739;SDS011;27422;52.444;13.300;2023-05-10T03:30:27;6.03;;;3.85;;
41739;SDS011;27422;52.444;13.300;2023-05-10T03:32:53;6.32;;;4.05;;
41739;SDS011;27422;52.444;13.300;2023-05-10T03:35:19;8.85;;;4.13;;
41739;SDS011;27422;52.444;13.300;2023-05-10T03:37:44;8.38;;;4.38;;
41739;SDS011;27422;52.444;13.300;2023-05-10T03:40:10;6.32;;;3.88;;
41739;SDS011;27422;52.444;13.300;2023-05-10T03:42:35;6.80;;;4.10;;
41739;SDS011;27422;52.444;13.300;2023-05-10T03:45:01;7.97;;;4.57;;
41739;SDS011;27422;52.444;13.300;2023-05-10T03:47:27;6.22;;;3.42;;
41739;SDS011;27422;52.444;13.300;2023-05-10T03:49:52;7.32;;;3.97;;
41739;SDS011;27422;52.444;13.300;2023-05-10T03:52:17;6.22;;;3.95;;
41739;SDS011;27422;52.444;13.300;2023-05-10T03:54:43;5.93;;;3.63;;
41739;SDS011;27422;52.444;13.300;2023-05-10T03:57:08;7.57;;;3.60;;
41739;SDS011;27422;52.444;13.300;2023-05-10T03:59:34;6.75;;;3.75;;
41739;SDS011;27422;52.444;13.300;2023-05-10T04:02:00;6.90;;;3.95;;
41739;SDS011;27422;52.444;13.300;2023-05-10T04:04:25;7.60;;;4.45;;
41739;SDS011;27422;52.444;13.300;2023-05-10T04:06:50;6.25;;;3.42;;
41739;SDS011;27422;52.444;13.300;2023-05-10T04:09:16;8.15;;;3.92;;
41739;SDS011;27422;52.444;13.300;2023-05-10T04:11:42;8.95;;;3.60;;
41739;SDS011;27422;52.444;13.300;2023-05-10T04:14:07;6.20;;;3.28;;
41739;SDS011;27422;52.444;13.300;2023-05-10T04:16:32;9.82;;;3.92;;
41739;SDS011;27422;52.444;13.300;2023-05-10T04:18:58;6.00;;;3.58;;
41739;SDS011;27422;52.444;13.300;2023-05-10T04:21:24;7.10;;;3.92;;
41739;SDS011;27422;52.444;13.300;2023-05-10T04:23:50;5.93;;;3.67;;
41739;SDS011;27422;52.444;13.300;2023-05-10T04:26:15;6.25;;;3.50;;
41739;SDS011;27422;52.444;13.300;2023-05-10T04:28:41;6.10;;;3.72;;
41739;SDS011;27422;52.444;13.300;2023-05-10T04:31:07;6.15;;;3.40;;
41739;SDS011;27422;52.444;13.300;2023-05-10T04:33:34;6.47;;;3.95;;
41739;SDS011;27422;52.444;13.300;2023-05-10T04:36:00;5.90;;;3.33;;
41739;SDS011;27422;52.444;13.300;2023-05-10T04:38:26;5.82;;;3.50;;
41739;SDS011;27422;52.444;13.300;2023-05-10T04:40:51;5.57;;;3.20;;
41739;SDS011;27422;52.444;13.300;2023-05-10T04:43:17;6.45;;;3.67;;
41739;SDS011;27422;52.444;13.300;2023-05-10T04:45:42;5.40;;;3.40;;
41739;SDS011;27422;52.444;13.300;2023-05-10T04:48:08;6.85;;;3.60;;
41739;SDS011;27422;52.444;13.300;2023-05-10T04:50:33;8.05;;;3.33;;
41739;SDS011;27422;52.444;13.300;2023-05-10T04:52:58;6.97;;;3.40;;
41739;SDS011;27422;52.444;13.300;2023-05-10T04:55:24;6.55;;;3.30;;
41739;SDS011;27422;52.444;13.300;2023-05-10T04:57:49;7.05;;;3.30;;
41739;SDS011;27422;52.444;13.300;2023-05-10T05:00:15;6.05;;;3.70;;
41739;SDS011;27422;52.444;13.300;2023-05-10T05:02:44;8.15;;;3.55;;
41739;SDS011;27422;52.444;13.300;2023-05-10T05:05:12;6.35;;;3.00;;
41739;SDS011;27422;52.444;13.300;2023-05-10T05:07:38;6.13;;;3.10;;
41739;SDS011;27422;52.444;13.300;2023-05-10T05:10:07;4.85;;;3.10;;
41739;SDS011;27422;52.444;13.300;2023-05-10T05:12:33;6.18;;;2.92;;
41739;SDS011;27422;52.444;13.300;2023-05-10T05:14:59;6.50;;;3.20;;
41739;SDS011;27422;52.444;13.300;2023-05-10T05:17:24;4.97;;;2.67;;
41739;SDS011;27422;52.444;13.300;2023-05-10T05:19:50;5.78;;;3.10;;
41739;SDS011;27422;52.444;13.300;2023-05-10T05:22:15;5.13;;;2.97;;
41739;SDS011;27422;52.444;13.300;2023-05-10T05:24:41;5.63;;;3.03;;
41739;SDS011;27422;52.444;13.300;2023-05-10T05:27:06;7.00;;;2.97;;
41739;SDS011;27422;52.444;13.300;2023-05-10T05:29:32;5.63;;;2.92;;
41739;SDS011;27422;52.444;13.300;2023-05-10T05:31:57;5.28;;;2.47;;
41739;SDS011;27422;52.444;13.300;2023-05-10T05:34:23;4.90;;;2.72;;
41739;SDS011;27422;52.444;13.300;2023-05-10T05:36:49;6.50;;;2.88;;
41739;SDS011;27422;52.444;13.300;2023-05-10T05:39:14;7.68;;;2.90;;
41739;SDS011;27422;52.444;13.300;2023-05-10T05:41:40;5.85;;;2.97;;
41739;SDS011;27422;52.444;13.300;2023-05-10T05:44:05;4.78;;;2.60;;
41739;SDS011;27422;52.444;13.300;2023-05-10T05:46:30;4.88;;;2.55;;
41739;SDS011;27422;52.444;13.300;2023-05-10T05:48:56;4.63;;;2.40;;
41739;SDS011;27422;52.444;13.300;2023-05-10T05:51:21;5.40;;;2.30;;
41739;SDS011;27422;52.444;13.300;2023-05-10T05:53:47;4.97;;;2.50;;
41739;SDS011;27422;52.444;13.300;2023-05-10T05:56:12;5.30;;;2.47;;
41739;SDS011;27422;52.444;13.300;2023-05-10T05:58:38;4.65;;;2.40;;
41739;SDS011;27422;52.444;13.300;2023-05-10T06:01:04;6.85;;;2.50;;
41739;SDS011;27422;52.444;13.300;2023-05-10T06:03:29;5.80;;;2.67;;
41739;SDS011;27422;52.444;13.300;2023-05-10T06:05:54;5.57;;;2.08;;
41739;SDS011;27422;52.444;13.300;2023-05-10T06:08:20;7.00;;;2.28;;
41739;SDS011;27422;52.444;13.300;2023-05-10T06:10:45;7.35;;;2.38;;
41739;SDS011;27422;52.444;13.300;2023-05-10T06:13:11;5.43;;;1.92;;
41739;SDS011;27422;52.444;13.300;2023-05-10T06:15:36;3.88;;;1.90;;
41739;SDS011;27422;52.444;13.300;2023-05-10T06:18:02;5.25;;;2.20;;
41739;SDS011;27422;52.444;13.300;2023-05-10T06:20:28;6.25;;;2.13;;
41739;SDS011;27422;52.444;13.300;2023-05-10T06:22:53;3.47;;;1.90;;
41739;SDS011;27422;52.444;13.300;2023-05-10T06:25:19;5.03;;;2.22;;
41739;SDS011;27422;52.444;13.300;2023-05-10T06:27:44;5.15;;;2.10;;
41739;SDS011;27422;52.444;13.300;2023-05-10T06:30:10;3.70;;;1.77;;
41739;SDS011;27422;52.444;13.300;2023-05-10T06:32:36;7.20;;;1.92;;
41739;SDS011;27422;52.444;13.300;2023-05-10T06:35:01;5.30;;;1.80;;
41739;SDS011;27422;52.444;13.300;2023-05-10T06:37:27;3.60;;;1.83;;
41739;SDS011;27422;52.444;13.300;2023-05-10T06:39:52;5.97;;;2.08;;
41739;SDS011;27422;52.444;13.300;2023-05-10T06:42:17;6.22;;;1.88;;
41739;SDS011;27422;52.444;13.300;2023-05-10T06:44:43;3.92;;;1.77;;
41739;SDS011;27422;52.444;13.300;2023-05-10T06:47:08;4.20;;;2.08;;
41739;SDS011;27422;52.444;13.300;2023-05-10T06:49:34;5.25;;;2.38;;
41739;SDS011;27422;52.444;13.300;2023-05-10T06:51:59;3.53;;;1.88;;
41739;SDS011;27422;52.444;13.300;2023-05-10T06:54:25;3.50;;;1.90;;
41739;SDS011;27422;52.444;13.300;2023-05-10T06:56:50;4.50;;;1.88;;
41739;SDS011;27422;52.444;13.300;2023-05-10T06:59:16;4.28;;;1.90;;
41739;SDS011;27422;52.444;13.300;2023-05-10T07:01:41;3.58;;;1.83;;
41739;SDS011;27422;52.444;13.300;2023-05-10T07:04:07;4.82;;;1.90;;
41739;SDS011;27422;52.444;13.300;2023-05-10T07:06:33;4.55;;;2.22;;
41739;SDS011;27422;52.444;13.300;2023-05-10T07:08:58;4.28;;;1.90;;
41739;SDS011;27422;52.444;13.300;2023-05-10T07:11:24;6.05;;;1.67;;
41739;SDS011;27422;52.444;13.300;2023-05-10T07:13:49;3.42;;;1.75;;
41739;SDS011;27422;52.444;13.300;2023-05-10T07:16:15;3.50;;;1.73;;
41739;SDS011;27422;52.444;13.300;2023-05-10T07:18:40;6.72;;;2.00;;
41739;SDS011;27422;52.444;13.300;2023-05-10T07:21:05;3.08;;;1.60;;
41739;SDS011;27422;52.444;13.300;2023-05-10T07:23:31;4.28;;;1.60;;
41739;SDS011;27422;52.444;13.300;2023-05-10T07:25:57;3.15;;;1.45;;
41739;SDS011;27422;52.444;13.300;2023-05-10T07:28:22;4.72;;;1.58;;
41739;SDS011;27422;52.444;13.300;2023-05-10T07:30:49;3.08;;;1.42;;
41739;SDS011;27422;52.444;13.300;2023-05-10T07:33:15;5.05;;;1.60;;
41739;SDS011;27422;52.444;13.300;2023-05-10T07:35:40;4.28;;;1.90;;
41739;SDS011;27422;52.444;13.300;2023-05-10T07:38:06;4.53;;;1.50;;
41739;SDS011;27422;52.444;13.300;2023-05-10T07:40:32;3.30;;;1.50;;
41739;SDS011;27422;52.444;13.300;2023-05-10T07:42:57;2.88;;;1.40;;
41739;SDS011;27422;52.444;13.300;2023-05-10T07:45:23;3.63;;;1.70;;
41739;SDS011;27422;52.444;13.300;2023-05-10T07:47:48;5.63;;;1.73;;
41739;SDS011;27422;52.444;13.300;2023-05-10T07:50:14;4.55;;;1.70;;
41739;SDS011;27422;52.444;13.300;2023-05-10T07:52:40;3.40;;;1.65;;
41739;SDS011;27422;52.444;13.300;2023-05-10T07:55:06;5.32;;;1.52;;
41739;SDS011;27422;52.444;13.300;2023-05-10T07:57:33;4.72;;;1.65;;
41739;SDS011;27422;52.444;13.300;2023-05-10T07:59:59;5.60;;;1.50;;
41739;SDS011;27422;52.444;13.300;2023-05-10T08:02:24;3.90;;;1.70;;
41739;SDS011;27422;52.444;13.300;2023-05-10T08:04:50;3.58;;;1.52;;
41739;SDS011;27422;52.444;13.300;2023-05-10T08:07:15;4.15;;;1.83;;
41739;SDS011;27422;52.444;13.300;2023-05-10T08:09:41;4.90;;;1.50;;
41739;SDS011;27422;52.444;13.300;2023-05-10T08:12:06;3.03;;;1.45;;
41739;SDS011;27422;52.444;13.300;2023-05-10T08:14:32;4.95;;;1.80;;
41739;SDS011;27422;52.444;13.300;2023-05-10T08:16:57;2.80;;;1.50;;
41739;SDS011;27422;52.444;13.300;2023-05-10T08:19:22;4.30;;;1.48;;
41739;SDS011;27422;52.444;13.300;2023-05-10T08:21:48;5.03;;;1.70;;
41739;SDS011;27422;52.444;13.300;2023-05-10T08:24:14;3.22;;;1.50;;
41739;SDS011;27422;52.444;13.300;2023-05-10T08:26:39;4.38;;;1.50;;
41739;SDS011;27422;52.444;13.300;2023-05-10T08:29:05;6.25;;;2.08;;
41739;SDS011;27422;52.444;13.300;2023-05-10T08:31:30;4.75;;;1.63;;
41739;SDS011;27422;52.444;13.300;2023-05-10T08:33:55;3.97;;;1.58;;
41739;SDS011;27422;52.444;13.300;2023-05-10T08:36:21;3.05;;;1.30;;
41739;SDS011;27422;52.444;13.300;2023-05-10T08:38:50;3.90;;;1.35;;
41739;SDS011;27422;52.444;13.300;2023-05-10T08:41:16;4.18;;;1.40;;
41739;SDS011;27422;52.444;13.300;2023-05-10T08:43:41;3.25;;;1.40;;
41739;SDS011;27422;52.444;13.300;2023-05-10T08:46:11;4.45;;;1.35;;
41739;SDS011;27422;52.444;13.300;2023-05-10T08:48:41;4.10;;;1.50;;
41739;SDS011;27422;52.444;13.300;2023-05-10T08:51:07;2.70;;;1.27;;
41739;SDS011;27422;52.444;13.300;2023-05-10T08:53:33;3.28;;;1.38;;
41739;SDS011;27422;52.444;13.300;2023-05-10T08:56:01;3.50;;;1.42;;
41739;SDS011;27422;52.444;13.300;2023-05-10T08:58:27;3.13;;;1.40;;
41739;SDS011;27422;52.444;13.300;2023-05-10T09:00:52;3.63;;;1.40;;
41739;SDS011;27422;52.444;13.300;2023-05-10T09:03:18;3.58;;;1.40;;
41739;SDS011;27422;52.444;13.300;2023-05-10T09:05:43;3.15;;;1.35;;
41739;SDS011;27422;52.444;13.300;2023-05-10T09:08:09;3.17;;;1.42;;
41739;SDS011;27422;52.444;13.300;2023-05-10T09:10:36;4.40;;;1.50;;
41739;SDS011;27422;52.444;13.300;2023-05-10T09:13:03;3.40;;;1.35;;
41739;SDS011;27422;52.444;13.300;2023-05-10T09:15:29;4.38;;;1.80;;
41739;SDS011;27422;52.444;13.300;2023-05-10T09:17:55;3.35;;;1.30;;
41739;SDS011;27422;52.444;13.300;2023-05-10T09:20:23;3.75;;;1.50;;
41739;SDS011;27422;52.444;13.300;2023-05-10T09:22:49;4.20;;;1.40;;
41739;SDS011;27422;52.444;13.300;2023-05-10T09:25:15;2.67;;;1.50;;
41739;SDS011;27422;52.444;13.300;2023-05-10T09:27:43;3.73;;;1.40;;
41739;SDS011;27422;52.444;13.300;2023-05-10T09:30:10;2.67;;;1.30;;
41739;SDS011;27422;52.444;13.300;2023-05-10T09:32:40;2.70;;;1.40;;
41739;SDS011;27422;52.444;13.300;2023-05-10T09:35:09;2.35;;;1.25;;
41739;SDS011;27422;52.444;13.300;2023-05-10T09:37:36;2.55;;;1.40;;
41739;SDS011;27422;52.444;13.300;2023-05-10T09:40:04;2.80;;;1.40;;
41739;SDS011;27422;52.444;13.300;2023-05-10T09:42:30;2.55;;;1.23;;
41739;SDS011;27422;52.444;13.300;2023-05-10T09:44:59;3.67;;;1.40;;
41739;SDS011;27422;52.444;13.300;2023-05-10T09:47:25;3.15;;;1.40;;
41739;SDS011;27422;52.444;13.300;2023-05-10T09:49:52;3.53;;;1.50;;
41739;SDS011;27422;52.444;13.300;2023-05-10T09:52:18;3.47;;;1.20;;
41739;SDS011;27422;52.444;13.300;2023-05-10T09:54:53;4.22;;;1.17;;
41739;SDS011;27422;52.444;13.300;2023-05-10T09:57:22;2.83;;;1.13;;
41739;SDS011;27422;52.444;13.300;2023-05-10T09:59:48;3.03;;;1.35;;
41739;SDS011;27422;52.444;13.300;2023-05-10T10:02:14;3.88;;;1.15;;
41739;SDS011;27422;52.444;13.300;2023-05-10T10:04:40;2.90;;;1.30;;
41739;SDS011;27422;52.444;13.300;2023-05-10T10:07:06;3.77;;;1.60;;
41739;SDS011;27422;52.444;13.300;2023-05-10T10:09:32;3.78;;;1.00;;
41739;SDS011;27422;52.444;13.300;2023-05-10T10:12:02;2.15;;;0.90;;
41739;SDS011;27422;52.444;13.300;2023-05-10T10:14:28;3.70;;;1.35;;
41739;SDS011;27422;52.444;13.300;2023-05-10T10:16:54;2.17;;;1.08;;
41739;SDS011;27422;52.444;13.300;2023-05-10T10:19:20;2.67;;;1.27;;
41739;SDS011;27422;52.444;13.300;2023-05-10T10:21:46;8.40;;;1.30;;
41739;SDS011;27422;52.444;13.300;2023-05-10T10:24:14;3.67;;;1.38;;
41739;SDS011;27422;52.444;13.300;2023-05-10T10:26:40;2.20;;;1.20;;
41739;SDS011;27422;52.444;13.300;2023-05-10T10:29:29;3.38;;;1.30;;
41739;SDS011;27422;52.444;13.300;2023-05-10T10:34:30;4.07;;;1.20;;
41739;SDS011;27422;52.444;13.300;2023-05-10T10:36:57;3.17;;;1.40;;
41739;SDS011;27422;52.444;13.300;2023-05-10T10:39:23;2.90;;;1.38;;
41739;SDS011;27422;52.444;13.300;2023-05-10T10:41:52;1.95;;;0.93;;
41739;SDS011;27422;52.444;13.300;2023-05-10T10:44:22;2.83;;;1.30;;
41739;SDS011;27422;52.444;13.300;2023-05-10T10:47:04;2.70;;;1.00;;
41739;SDS011;27422;52.444;13.300;2023-05-10T11:00:30;2.30;;;1.08;;
41739;SDS011;27422;52.444;13.300;2023-05-10T11:03:07;2.42;;;0.98;;
41739;SDS011;27422;52.444;13.300;2023-05-10T11:08:12;4.10;;;1.15;;
41739;SDS011;27422;52.444;13.300;2023-05-10T11:10:51;2.63;;;1.10;;
41739;SDS011;27422;52.444;13.300;2023-05-10T11:13:28;2.80;;;1.10;;
41739;SDS011;27422;52.444;13.300;2023-05-10T11:15:57;3.50;;;1.23;;
41739;SDS011;27422;52.444;13.300;2023-05-10T11:18:27;3.65;;;1.10;;
41739;SDS011;27422;52.444;13.300;2023-05-10T11:23:29;3.00;;;1.10;;
41739;SDS011;27422;52.444;13.300;2023-05-10T11:25:59;2.10;;;0.95;;
41739;SDS011;27422;52.444;13.300;2023-05-10T11:28:26;2.50;;;1.15;;
41739;SDS011;27422;52.444;13.300;2023-05-10T11:30:52;3.00;;;1.25;;
41739;SDS011;27422;52.444;13.300;2023-05-10T11:33:18;2.60;;;1.00;;
41739;SDS011;27422;52.444;13.300;2023-05-10T11:35:45;1.88;;;0.80;;
41739;SDS011;27422;52.444;13.300;2023-05-10T11:38:11;2.00;;;1.00;;
41739;SDS011;27422;52.444;13.300;2023-05-10T11:40:38;1.95;;;1.00;;
41739;SDS011;27422;52.444;13.300;2023-05-10T11:43:04;1.98;;;0.90;;
41739;SDS011;27422;52.444;13.300;2023-05-10T11:45:33;2.00;;;0.82;;
41739;SDS011;27422;52.444;13.300;2023-05-10T11:47:59;2.78;;;1.20;;
41739;SDS011;27422;52.444;13.300;2023-05-10T11:50:25;2.05;;;1.02;;
41739;SDS011;27422;52.444;13.300;2023-05-10T11:52:54;4.35;;;1.25;;
41739;SDS011;27422;52.444;13.300;2023-05-10T11:55:20;3.30;;;1.20;;
41739;SDS011;27422;52.444;13.300;2023-05-10T11:57:46;3.38;;;0.95;;
41739;SDS011;27422;52.444;13.300;2023-05-10T12:00:12;2.25;;;1.10;;
41739;SDS011;27422;52.444;13.300;2023-05-10T12:02:40;2.35;;;1.10;;
41739;SDS011;27422;52.444;13.300;2023-05-10T12:05:06;3.72;;;1.20;;
41739;SDS011;27422;52.444;13.300;2023-05-10T12:07:31;3.63;;;1.35;;
41739;SDS011;27422;52.444;13.300;2023-05-10T12:10:12;3.63;;;1.48;;
41739;SDS011;27422;52.444;13.300;2023-05-10T12:12:45;3.40;;;1.75;;
41739;SDS011;27422;52.444;13.300;2023-05-10T12:15:20;3.85;;;1.40;;
41739;SDS011;27422;52.444;13.300;2023-05-10T12:17:46;2.58;;;1.20;;
41739;SDS011;27422;52.444;13.300;2023-05-10T12:20:16;4.68;;;1.63;;
41739;SDS011;27422;52.444;13.300;2023-05-10T12:22:55;4.40;;;1.42;;
41739;SDS011;27422;52.444;13.300;2023-05-10T12:25:22;2.80;;;1.50;;
41739;SDS011;27422;52.444;13.300;2023-05-10T12:27:52;4.07;;;1.35;;
41739;SDS011;27422;52.444;13.300;2023-05-10T12:30:22;3.30;;;1.38;;
41739;SDS011;27422;52.444;13.300;2023-05-10T12:35:14;3.92;;;1.30;;
41739;SDS011;27422;52.444;13.300;2023-05-10T12:37:40;2.78;;;1.30;;
41739;SDS011;27422;52.444;13.300;2023-05-10T12:40:06;3.53;;;1.45;;
41739;SDS011;27422;52.444;13.300;2023-05-10T12:44:58;3.10;;;1.50;;
41739;SDS011;27422;52.444;13.300;2023-05-10T12:47:23;4.05;;;1.38;;
41739;SDS011;27422;52.444;13.300;2023-05-10T12:49:49;2.95;;;1.30;;
41739;SDS011;27422;52.444;13.300;2023-05-10T12:52:16;2.90;;;1.60;;
41739;SDS011;27422;52.444;13.300;2023-05-10T12:54:45;3.22;;;1.40;;
41739;SDS011;27422;52.444;13.300;2023-05-10T12:57:11;2.90;;;1.40;;
41739;SDS011;27422;52.444;13.300;2023-05-10T12:59:36;3.55;;;1.38;;
41739;SDS011;27422;52.444;13.300;2023-05-10T13:02:02;6.45;;;1.42;;
41739;SDS011;27422;52.444;13.300;2023-05-10T13:04:27;2.72;;;1.40;;
41739;SDS011;27422;52.444;13.300;2023-05-10T13:06:52;2.85;;;1.20;;
41739;SDS011;27422;52.444;13.300;2023-05-10T13:09:18;2.95;;;1.50;;
41739;SDS011;27422;52.444;13.300;2023-05-10T13:11:43;3.05;;;1.30;;
41739;SDS011;27422;52.444;13.300;2023-05-10T13:14:10;3.67;;;1.40;;
41739;SDS011;27422;52.444;13.300;2023-05-10T13:16:35;5.07;;;1.63;;
41739;SDS011;27422;52.444;13.300;2023-05-10T13:19:01;3.92;;;1.48;;
41739;SDS011;27422;52.444;13.300;2023-05-10T13:21:26;3.55;;;1.60;;
41739;SDS011;27422;52.444;13.300;2023-05-10T13:23:52;3.80;;;1.40;;
41739;SDS011;27422;52.444;13.300;2023-05-10T13:26:18;3.58;;;1.60;;
41739;SDS011;27422;52.444;13.300;2023-05-10T13:28:44;2.83;;;1.25;;
41739;SDS011;27422;52.444;13.300;2023-05-10T13:31:10;3.58;;;1.40;;
41739;SDS011;27422;52.444;13.300;2023-05-10T13:33:36;2.78;;;1.40;;
41739;SDS011;27422;52.444;13.300;2023-05-10T13:36:01;4.72;;;1.40;;
41739;SDS011;27422;52.444;13.300;2023-05-10T13:38:26;2.45;;;1.08;;
41739;SDS011;27422;52.444;13.300;2023-05-10T13:40:52;2.80;;;1.20;;
41739;SDS011;27422;52.444;13.300;2023-05-10T13:43:20;2.00;;;0.90;;
41739;SDS011;27422;52.444;13.300;2023-05-10T13:45:46;2.45;;;1.15;;
41739;SDS011;27422;52.444;13.300;2023-05-10T13:48:31;3.15;;;1.40;;
41739;SDS011;27422;52.444;13.300;2023-05-10T13:50:57;2.15;;;1.10;;
41739;SDS011;27422;52.444;13.300;2023-05-10T13:53:22;3.92;;;1.33;;
41739;SDS011;27422;52.444;13.300;2023-05-10T13:55:48;4.25;;;0.98;;
41739;SDS011;27422;52.444;13.300;2023-05-10T13:58:14;3.55;;;1.20;;
41739;SDS011;27422;52.444;13.300;2023-05-10T14:00:39;2.63;;;0.95;;
41739;SDS011;27422;52.444;13.300;2023-05-10T14:03:05;3.88;;;1.30;;
41739;SDS011;27422;52.444;13.300;2023-05-10T14:05:31;5.93;;;1.30;;
41739;SDS011;27422;52.444;13.300;2023-05-10T14:07:57;3.08;;;1.10;;
41739;SDS011;27422;52.444;13.300;2023-05-10T14:10:23;4.97;;;1.27;;
41739;SDS011;27422;52.444;13.300;2023-05-10T14:12:49;3.38;;;1.10;;
41739;SDS011;27422;52.444;13.300;2023-05-10T14:15:14;1.93;;;0.90;;
41739;SDS011;27422;52.444;13.300;2023-05-10T14:17:40;1.67;;;0.90;;
41739;SDS011;27422;52.444;13.300;2023-05-10T14:20:05;4.65;;;1.05;;
41739;SDS011;27422;52.444;13.300;2023-05-10T14:22:31;5.30;;;1.75;;
41739;SDS011;27422;52.444;13.300;2023-05-10T14:24:57;3.00;;;1.50;;
41739;SDS011;27422;52.444;13.300;2023-05-10T14:27:23;3.67;;;1.60;;
41739;SDS011;27422;52.444;13.300;2023-05-10T14:29:48;2.58;;;1.25;;
41739;SDS011;27422;52.444;13.300;2023-05-10T14:32:13;4.95;;;1.60;;
41739;SDS011;27422;52.444;13.300;2023-05-10T14:34:39;3.47;;;1.42;;
41739;SDS011;27422;52.444;13.300;2023-05-10T14:37:04;3.20;;;1.30;;
41739;SDS011;27422;52.444;13.300;2023-05-10T14:39:30;2.75;;;1.30;;
41739;SDS011;27422;52.444;13.300;2023-05-10T14:41:55;4.20;;;1.33;;
41739;SDS011;27422;52.444;13.300;2023-05-10T14:44:21;4.22;;;1.48;;
41739;SDS011;27422;52.444;13.300;2023-05-10T14:46:46;3.13;;;1.50;;
41739;SDS011;27422;52.444;13.300;2023-05-10T14:49:13;3.95;;;1.25;;
41739;SDS011;27422;52.444;13.300;2023-05-10T14:51:38;4.53;;;1.80;;
41739;SDS011;27422;52.444;13.300;2023-05-10T14:54:04;3.45;;;1.52;;
41739;SDS011;27422;52.444;13.300;2023-05-10T14:56:29;2.58;;;1.55;;
41739;SDS011;27422;52.444;13.300;2023-05-10T14:58:55;2.63;;;1.30;;
41739;SDS011;27422;52.444;13.300;2023-05-10T15:01:20;3.95;;;1.40;;
41739;SDS011;27422;52.444;13.300;2023-05-10T15:03:46;2.72;;;1.42;;
41739;SDS011;27422;52.444;13.300;2023-05-10T15:06:13;2.78;;;1.60;;
41739;SDS011;27422;52.444;13.300;2023-05-10T15:08:39;2.83;;;1.50;;
41739;SDS011;27422;52.444;13.300;2023-05-10T15:11:04;2.30;;;1.00;;
41739;SDS011;27422;52.444;13.300;2023-05-10T15:13:30;3.08;;;1.50;;
41739;SDS011;27422;52.444;13.300;2023-05-10T15:15:55;6.40;;;1.33;;
41739;SDS011;27422;52.444;13.300;2023-05-10T15:18:21;2.75;;;1.35;;